DIRECCIÓN GENERAL DE AERONÁUTICA CIVIL
DIRECCIÓN METEOROLÓGICA DE CHILE
INFORMACIÓN METAR Y TAF

FIR PUERTO MONTT

Estación: SCQP
METAR SCQP 271800Z 28004KT 200V330 2000 R01/1400N VA FEW006 16/13 Q1015=

TAF SCQP 271630Z 2718/2818 VRB02KT 5000 BR BKN010 TX21/2719Z TN08/ 2810Z BECMG 2720/2722 23006KT 9999 SCT015 BECMG 2806/2808 VRB02KT 2000 BR SCT010 TEMPO 2809/2813 0500 FG VV002 BECMG 2816/2818 9999 SCT020=

Estación: SCVD
METAR SCVD 271800Z VRB03KT 7000 VA OVC027 16/12 Q1015=

TAF SCVD 271630Z 2718/2806 VRB02KT 9999 BKN010 TX21/2720Z TN11/2806Z TEMPO 2720/2723 SCT020 BECMG 2801/2803 5000 BR BKN010 BKN060=

Estación: SCJO
METAR SCJO 271800Z VRB02KT 2500 VA SKC 17/12 Q1015=

TAF SCJO 271630Z 2718/2806 30004KT 5000 BR BKN015 TX18/2720Z TN12/ 2806Z TEMPO 2720/2723 9999 SCT020 BECMG 2800/2802 SCT010 BKN060=

Estación: SCTE
METAR SCTE 271800Z VRB03KT 5000 VA BKN025 17/14 Q1016 NOSIG=

TAF SCTE 271630Z 2718/2818 35005KT 6000 BKN010 TX16/2718Z TN09/2810Z BECMG 2720/2722 9999 SCT020 BECMG 2800/2802 SCT010 BKN060 BECMG 2806/ 2808 6000 BKN015 BECMG 2814/2816 9999 BKN030=

Estación: SCPQ
SPECI SCPQ 271801Z 31007KT 290V350 4500 BR OVC028 16/11 Q1015=

TAF SCPQ 271655Z 2718/2806 36008KT 9999 SCT030 TX15/2719Z TN12/2806Z BECMG 2722/2800 SCT010 BKN060=

Estación: SCON
METAR SCON 271800Z 08004KT 9999 FEW015 BKN100 15/10 Q1015=

TAF SCON NIL=

Estación: SCTN
METAR SCTN 271800Z VRB01KT 9999 BKN005 OVC010 13/10 Q1015=

TAF SCTN 271640Z 2718/2806 32006KT 9999 BKN005 BKN060 TX15/2720Z TN11 /2806Z TEMPO 2720/2722 SCT010 BKN060 BECMG 2722/2800 9999 SCT015 BKN060=

Estación: SCFT
METAR SCFT 271800Z 28005KT 8000 VA NSC 14/06 Q1018=

NIL=

Estación: SCAP
METAR SCAP 271800Z VRB02KT 6000 VA SCT030 16/07 Q1023=

NIL=

Estación: SCMK
METAR SCMK 271800Z 05005KT CAVOK 13/09 Q1014=

TAF SCMK 271655Z 2718/2806 02010KT 9999 CAVOK TX14/2719Z TN12/2806Z BECMG 2722/2800 5000 -RA BKN015 BKN030=

Estación: SCAS
METAR SCAS 271800Z 00000KT CAVOK 13/06 Q1018=

NIL=

Estación: SCCY
METAR SCCY 271800Z 21005KT 9999 BKN030 OVC080 10/06 Q1019=

TAF SCCY 271658Z 2718/2806 19005KT 9999 BKN030 TX12/2719Z TN06/2806Z=

Estación: SCBA
METAR SCBA 271800Z 13008KT 9999 OVC030 10/04 Q1019=

TAF SCBA 271630Z 2718/2818 11020KT 9999 SCT040 TX15/2718Z TN03/2810Z BECMG 2800/2802 SCT030 BKN120 BECMG 2706/2708 31010KT=

Estación: SCCC
METAR SCCC 271800Z 13004KT 9999 OVC030 10/04 Q1021=

NIL=

Estación: SCHR
METAR SCHR 271800Z 14004KT 9999 FEW035 SCT100 OVC200 10/03 Q1015=

TAF SCHR 271101Z 2712/2800 01005KT 9999 FEW048 TN01/2712Z TX15/2718Z TEMPO 2716/2720 35010KT 0500 FG SCT002 OVC009=


Volver